sensor_id;sensor_type;location;lat;lon;timestamp;temperature;humidity
35305;DHT22;26433;48.034;-1.764;2022-10-28T05:02:42;18.00;95.00
35305;DHT22;26433;48.034;-1.764;2022-10-28T05:07:47;18.00;95.10
35305;DHT22;26433;48.034;-1.764;2022-10-28T05:12:51;18.00;95.30
35305;DHT22;26433;48.034;-1.764;2022-10-28T05:17:56;18.00;95.10
35305;DHT22;26433;48.034;-1.764;2022-10-28T05:23:00;18.10;95.00
35305;DHT22;26433;48.034;-1.764;2022-10-28T05:28:04;18.00;94.90
35305;DHT22;26433;48.034;-1.764;2022-10-28T05:33:10;18.00;95.10
35305;DHT22;26433;48.034;-1.764;2022-10-28T05:38:26;17.90;95.70
35305;DHT22;26433;48.034;-1.764;2022-10-28T05:43:29;17.90;95.40
35305;DHT22;26433;48.034;-1.764;2022-10-28T05:48:34;17.90;95.50
35305;DHT22;26433;48.034;-1.764;2022-10-28T05:53:38;17.90;95.50
35305;DHT22;26433;48.034;-1.764;2022-10-28T05:58:43;17.90;95.40
35305;DHT22;26433;48.034;-1.764;2022-10-28T06:03:48;17.90;95.40
35305;DHT22;26433;48.034;-1.764;2022-10-28T06:08:52;17.00;95.50
35305;DHT22;26433;48.034;-1.764;2022-10-28T06:13:56;18.00;95.40
35305;DHT22;26433;48.034;-1.764;2022-10-28T06:19:02;18.10;95.50
35305;DHT22;26433;48.034;-1.764;2022-10-28T06:24:10;18.10;95.20
35305;DHT22;26433;48.034;-1.764;2022-10-28T06:29:15;18.10;95.40
35305;DHT22;26433;48.034;-1.764;2022-10-28T06:34:20;18.20;95.50
35305;DHT22;26433;48.034;-1.764;2022-10-28T06:39:24;18.10;95.40
35305;DHT22;26433;48.034;-1.764;2022-10-28T06:44:29;18.20;95.30
35305;DHT22;26433;48.034;-1.764;2022-10-28T06:49:34;18.30;95.30
35305;DHT22;26433;48.034;-1.764;2022-10-28T06:54:40;18.30;95.10
35305;DHT22;26433;48.034;-1.764;2022-10-28T06:59:44;18.20;95.40
35305;DHT22;26433;48.034;-1.764;2022-10-28T07:04:49;18.20;95.40
35305;DHT22;26433;48.034;-1.764;2022-10-28T07:09:53;18.20;95.30
35305;DHT22;26433;48.034;-1.764;2022-10-28T07:14:57;18.20;95.40
35305;DHT22;26433;48.034;-1.764;2022-10-28T07:20:02;18.20;95.70
35305;DHT22;26433;48.034;-1.764;2022-10-28T07:25:07;17.90;95.60
35305;DHT22;26433;48.034;-1.764;2022-10-28T07:30:11;18.30;95.70
35305;DHT22;26433;48.034;-1.764;2022-10-28T07:35:16;18.40;95.50
35305;DHT22;26433;48.034;-1.764;2022-10-28T07:40:20;18.50;95.20
35305;DHT22;26433;48.034;-1.764;2022-10-28T07:45:27;18.60;95.30
35305;DHT22;26433;48.034;-1.764;2022-10-28T07:50:32;17.60;95.00
35305;DHT22;26433;48.034;-1.764;2022-10-28T07:55:36;18.70;95.30
35305;DHT22;26433;48.034;-1.764;2022-10-28T08:00:39;18.80;95.20
35305;DHT22;26433;48.034;-1.764;2022-10-28T08:05:45;19.00;95.20
35305;DHT22;26433;48.034;-1.764;2022-10-28T08:10:48;19.10;95.00
35305;DHT22;26433;48.034;-1.764;2022-10-28T08:15:53;19.20;94.80
35305;DHT22;26433;48.034;-1.764;2022-10-28T08:21:00;19.40;94.70
35305;DHT22;26433;48.034;-1.764;2022-10-28T08:26:04;19.40;94.50
35305;DHT22;26433;48.034;-1.764;2022-10-28T08:31:08;19.50;94.40
35305;DHT22;26433;48.034;-1.764;2022-10-28T08:36:16;19.50;94.30
35305;DHT22;26433;48.034;-1.764;2022-10-28T08:41:27;19.50;94.20
35305;DHT22;26433;48.034;-1.764;2022-10-28T08:46:47;19.90;94.20
35305;DHT22;26433;48.034;-1.764;2022-10-28T08:51:57;19.70;93.80
35305;DHT22;26433;48.034;-1.764;2022-10-28T08:57:05;19.90;93.80
35305;DHT22;26433;48.034;-1.764;2022-10-28T09:02:21;20.20;93.30
35305;DHT22;26433;48.034;-1.764;2022-10-28T09:07:35;20.40;92.70
35305;DHT22;26433;48.034;-1.764;2022-10-28T09:12:46;20.60;92.20
35305;DHT22;26433;48.034;-1.764;2022-10-28T09:17:54;20.80;91.80
35305;DHT22;26433;48.034;-1.764;2022-10-28T09:23:05;21.20;91.30
35305;DHT22;26433;48.034;-1.764;2022-10-28T09:28:23;21.50;90.80
35305;DHT22;26433;48.034;-1.764;2022-10-28T09:33:49;21.60;89.80
35305;DHT22;26433;48.034;-1.764;2022-10-28T09:38:57;21.80;89.40
35305;DHT22;26433;48.034;-1.764;2022-10-28T09:44:07;21.90;88.70
35305;DHT22;26433;48.034;-1.764;2022-10-28T09:49:19;22.00;87.70
35305;DHT22;26433;48.034;-1.764;2022-10-28T09:54:32;21.90;88.30
35305;DHT22;26433;48.034;-1.764;2022-10-28T09:59:37;22.00;87.80
35305;DHT22;26433;48.034;-1.764;2022-10-28T10:04:41;22.10;86.80
35305;DHT22;26433;48.034;-1.764;2022-10-28T10:16:17;21.10;86.30
35305;DHT22;26433;48.034;-1.764;2022-10-28T10:21:43;22.00;86.20
35305;DHT22;26433;48.034;-1.764;2022-10-28T10:27:14;21.80;86.60
35305;DHT22;26433;48.034;-1.764;2022-10-28T11:02:44;21.20;87.60
35305;DHT22;26433;48.034;-1.764;2022-10-28T11:07:57;21.30;87.50
35305;DHT22;26433;48.034;-1.764;2022-10-28T11:13:39;21.30;86.90
35305;DHT22;26433;48.034;-1.764;2022-10-28T11:19:29;21.20;86.60
35305;DHT22;26433;48.034;-1.764;2022-10-28T11:37:50;21.30;85.70
35305;DHT22;26433;48.034;-1.764;2022-10-28T12:01:52;22.30;80.60
35305;DHT22;26433;48.034;-1.764;2022-10-28T12:19:00;23.20;79.20
35305;DHT22;26433;48.034;-1.764;2022-10-28T12:37:48;23.20;77.20
35305;DHT22;26433;48.034;-1.764;2022-10-28T12:44:08;23.30;77.90
35305;DHT22;26433;48.034;-1.764;2022-10-28T12:49:13;22.80;77.50
35305;DHT22;26433;48.034;-1.764;2022-10-28T12:55:01;24.00;78.60
35305;DHT22;26433;48.034;-1.764;2022-10-28T13:01:00;23.00;78.80
35305;DHT22;26433;48.034;-1.764;2022-10-28T13:06:28;22.90;78.80
35305;DHT22;26433;48.034;-1.764;2022-10-28T13:11:56;22.60;79.10
35305;DHT22;26433;48.034;-1.764;2022-10-28T13:17:23;22.50;79.40
35305;DHT22;26433;48.034;-1.764;2022-10-28T13:28:13;22.10;79.80
35305;DHT22;26433;48.034;-1.764;2022-10-28T13:33:23;22.20;80.10
35305;DHT22;26433;48.034;-1.764;2022-10-28T13:38:27;22.30;78.90
35305;DHT22;26433;48.034;-1.764;2022-10-28T13:43:58;21.70;79.40
35305;DHT22;26433;48.034;-1.764;2022-10-28T13:49:21;21.10;78.60
35305;DHT22;26433;48.034;-1.764;2022-10-28T13:54:29;21.90;79.20
35305;DHT22;26433;48.034;-1.764;2022-10-28T13:59:45;22.00;79.00
35305;DHT22;26433;48.034;-1.764;2022-10-28T14:04:56;22.00;78.90
35305;DHT22;26433;48.034;-1.764;2022-10-28T14:10:20;21.90;79.00
35305;DHT22;26433;48.034;-1.764;2022-10-28T14:15:28;21.80;79.00
35305;DHT22;26433;48.034;-1.764;2022-10-28T14:20:35;21.70;79.50
35305;DHT22;26433;48.034;-1.764;2022-10-28T14:26:00;21.60;79.60
35305;DHT22;26433;48.034;-1.764;2022-10-28T14:31:39;21.60;80.00
35305;DHT22;26433;48.034;-1.764;2022-10-28T14:36:51;21.50;80.00
35305;DHT22;26433;48.034;-1.764;2022-10-28T14:42:12;21.50;80.10
35305;DHT22;26433;48.034;-1.764;2022-10-28T14:47:43;21.60;79.80
35305;DHT22;26433;48.034;-1.764;2022-10-28T14:52:52;21.70;79.70
35305;DHT22;26433;48.034;-1.764;2022-10-28T14:58:11;21.60;80.10
35305;DHT22;26433;48.034;-1.764;2022-10-28T15:03:23;21.50;80.40
35305;DHT22;26433;48.034;-1.764;2022-10-28T15:08:27;21.40;80.60
35305;DHT22;26433;48.034;-1.764;2022-10-28T15:13:33;21.30;81.20
35305;DHT22;26433;48.034;-1.764;2022-10-28T15:18:45;21.60;81.40
35305;DHT22;26433;48.034;-1.764;2022-10-28T15:24:00;21.20;81.50
35305;DHT22;26433;48.034;-1.764;2022-10-28T15:29:04;21.00;81.80
35305;DHT22;26433;48.034;-1.764;2022-10-28T15:34:20;20.90;82.10
35305;DHT22;26433;48.034;-1.764;2022-10-28T15:39:24;20.90;82.30
35305;DHT22;26433;48.034;-1.764;2022-10-28T15:44:33;20.70;82.20
35305;DHT22;26433;48.034;-1.764;2022-10-28T15:49:39;20.80;82.30
35305;DHT22;26433;48.034;-1.764;2022-10-28T15:54:53;20.70;82.50
35305;DHT22;26433;48.034;-1.764;2022-10-28T16:00:21;20.70;82.50
35305;DHT22;26433;48.034;-1.764;2022-10-28T16:05:58;20.50;82.60
35305;DHT22;26433;48.034;-1.764;2022-10-28T16:11:14;20.50;82.60
35305;DHT22;26433;48.034;-1.764;2022-10-28T16:16:24;20.50;82.60
35305;DHT22;26433;48.034;-1.764;2022-10-28T16:21:30;20.00;82.40
35305;DHT22;26433;48.034;-1.764;2022-10-28T16:26:34;20.40;82.80
35305;DHT22;26433;48.034;-1.764;2022-10-28T16:31:40;20.40;82.70
35305;DHT22;26433;48.034;-1.764;2022-10-28T16:36:45;20.30;83.00
35305;DHT22;26433;48.034;-1.764;2022-10-28T16:41:49;20.30;83.50
35305;DHT22;26433;48.034;-1.764;2022-10-28T16:46:54;20.30;83.10
35305;DHT22;26433;48.034;-1.764;2022-10-28T16:51:59;20.30;83.20
35305;DHT22;26433;48.034;-1.764;2022-10-28T16:57:06;20.30;83.10
35305;DHT22;26433;48.034;-1.764;2022-10-28T17:02:16;19.50;83.00
35305;DHT22;26433;48.034;-1.764;2022-10-28T17:07:42;20.20;83.60
35305;DHT22;26433;48.034;-1.764;2022-10-28T17:13:44;20.10;84.10
35305;DHT22;26433;48.034;-1.764;2022-10-28T17:18:53;20.00;84.80
35305;DHT22;26433;48.034;-1.764;2022-10-28T17:24:04;19.90;84.80
35305;DHT22;26433;48.034;-1.764;2022-10-28T17:29:08;20.00;84.90
35305;DHT22;26433;48.034;-1.764;2022-10-28T17:34:13;19.00;84.50
35305;DHT22;26433;48.034;-1.764;2022-10-28T17:39:18;20.00;85.10
35305;DHT22;26433;48.034;-1.764;2022-10-28T17:44:27;20.00;84.80
35305;DHT22;26433;48.034;-1.764;2022-10-28T17:49:31;20.00;85.40
35305;DHT22;26433;48.034;-1.764;2022-10-28T17:54:39;19.90;85.90
35305;DHT22;26433;48.034;-1.764;2022-10-28T17:59:43;19.90;86.60
35305;DHT22;26433;48.034;-1.764;2022-10-28T18:04:51;19.80;86.90
35305;DHT22;26433;48.034;-1.764;2022-10-28T18:09:56;19.70;87.50
35305;DHT22;26433;48.034;-1.764;2022-10-28T18:15:02;19.70;87.40
35305;DHT22;26433;48.034;-1.764;2022-10-28T18:20:07;19.70;87.50
35305;DHT22;26433;48.034;-1.764;2022-10-28T18:25:13;19.70;87.40
35305;DHT22;26433;48.034;-1.764;2022-10-28T18:30:17;19.70;88.10
35305;DHT22;26433;48.034;-1.764;2022-10-28T18:35:22;19.60;88.90
35305;DHT22;26433;48.034;-1.764;2022-10-28T18:40:34;19.60;88.60
35305;DHT22;26433;48.034;-1.764;2022-10-28T18:45:41;19.50;88.80
35305;DHT22;26433;48.034;-1.764;2022-10-28T18:50:54;19.50;89.40
35305;DHT22;26433;48.034;-1.764;2022-10-28T18:56:02;19.50;89.20
35305;DHT22;26433;48.034;-1.764;2022-10-28T19:01:10;19.50;89.50
35305;DHT22;26433;48.034;-1.764;2022-10-28T19:06:18;19.40;89.60
35305;DHT22;26433;48.034;-1.764;2022-10-28T19:11:25;19.40;90.10
35305;DHT22;26433;48.034;-1.764;2022-10-28T19:16:33;19.40;90.30
35305;DHT22;26433;48.034;-1.764;2022-10-28T19:21:45;19.40;90.10
35305;DHT22;26433;48.034;-1.764;2022-10-28T19:26:52;19.40;90.40
35305;DHT22;26433;48.034;-1.764;2022-10-28T19:32:02;19.30;90.60
35305;DHT22;26433;48.034;-1.764;2022-10-28T19:37:06;19.30;90.60
35305;DHT22;26433;48.034;-1.764;2022-10-28T19:42:22;19.30;90.70
35305;DHT22;26433;48.034;-1.764;2022-10-28T19:47:27;19.10;90.70
35305;DHT22;26433;48.034;-1.764;2022-10-28T19:52:41;19.40;90.70
35305;DHT22;26433;48.034;-1.764;2022-10-28T19:57:46;19.40;90.70
35305;DHT22;26433;48.034;-1.764;2022-10-28T20:02:54;19.40;90.80
35305;DHT22;26433;48.034;-1.764;2022-10-28T20:08:01;19.40;90.70
35305;DHT22;26433;48.034;-1.764;2022-10-28T20:13:07;19.40;90.70
35305;DHT22;26433;48.034;-1.764;2022-10-28T20:18:12;19.40;91.00
35305;DHT22;26433;48.034;-1.764;2022-10-28T20:23:18;19.30;91.30
35305;DHT22;26433;48.034;-1.764;2022-10-28T20:28:26;19.40;91.40
35305;DHT22;26433;48.034;-1.764;2022-10-28T20:33:49;19.30;91.40
35305;DHT22;26433;48.034;-1.764;2022-10-28T20:39:14;19.40;91.50
35305;DHT22;26433;48.034;-1.764;2022-10-28T20:44:32;19.80;91.60
35305;DHT22;26433;48.034;-1.764;2022-10-28T20:49:47;19.30;91.60
35305;DHT22;26433;48.034;-1.764;2022-10-28T20:55:17;19.30;91.60
35305;DHT22;26433;48.034;-1.764;2022-10-28T21:00:30;19.40;91.70
35305;DHT22;26433;48.034;-1.764;2022-10-28T21:05:42;19.30;91.80
35305;DHT22;26433;48.034;-1.764;2022-10-28T21:10:46;19.20;91.80
35305;DHT22;26433;48.034;-1.764;2022-10-28T21:15:59;19.20;92.00
35305;DHT22;26433;48.034;-1.764;2022-10-28T21:21:14;19.20;92.00
35305;DHT22;26433;48.034;-1.764;2022-10-28T21:26:41;19.20;92.20
35305;DHT22;26433;48.034;-1.764;2022-10-28T21:31:51;19.10;92.00
35305;DHT22;26433;48.034;-1.764;2022-10-28T21:36:54;19.10;92.00
35305;DHT22;26433;48.034;-1.764;2022-10-28T21:41:58;19.10;92.20
35305;DHT22;26433;48.034;-1.764;2022-10-28T21:47:03;18.90;92.30
35305;DHT22;26433;48.034;-1.764;2022-10-28T21:52:07;18.70;92.90
35305;DHT22;26433;48.034;-1.764;2022-10-28T21:57:10;18.70;93.10
35305;DHT22;26433;48.034;-1.764;2022-10-28T22:02:15;18.70;93.10
35305;DHT22;26433;48.034;-1.764;2022-10-28T22:07:20;18.70;93.00
35305;DHT22;26433;48.034;-1.764;2022-10-28T22:12:23;18.70;93.10
35305;DHT22;26433;48.034;-1.764;2022-10-28T22:17:28;18.60;93.30
35305;DHT22;26433;48.034;-1.764;2022-10-28T22:22:32;18.60;93.50
35305;DHT22;26433;48.034;-1.764;2022-10-28T22:27:36;18.50;93.60
